Time;durP1;ratioP1;P1;durP2;ratioP2;P2;SDS_P1;SDS_P2;PMS_P1;PMS_P2;Temp;Humidity;BMP_temperature;BMP_pressure;BME280_temperature;BME280_humidity;BME280_pressure;Samples;Min_cycle;Max_cycle;Signal;HPM_P1;HPM_P2
2023/08/14 00:01:26;;;;;;;4.03;2.70;;;17.40;99.90;;;;;;4879525;29;20132;-78
2023/08/14 00:03:51;;;;;;;6.15;2.78;;;17.40;99.90;;;;;;4878765;29;20045;-78
2023/08/14 00:06:17;;;;;;;4.78;2.50;;;17.40;99.90;;;;;;4848082;29;20492;-78
2023/08/14 00:08:43;;;;;;;5.75;2.53;;;17.40;99.90;;;;;;4866992;29;20038;-79
2023/08/14 00:11:09;;;;;;;5.50;2.60;;;17.40;99.90;;;;;;4862502;29;20041;-78
2023/08/14 00:13:55;;;;;;;4.78;2.38;;;17.40;99.90;;;;;;4878634;29;20037;-78
2023/08/14 00:16:22;;;;;;;5.72;2.45;;;17.30;99.90;;;;;;4867062;29;20053;-79
2023/08/14 00:18:48;;;;;;;4.43;2.42;;;17.30;99.90;;;;;;4878072;29;20132;-79
2023/08/14 00:21:13;;;;;;;3.47;2.30;;;17.30;99.90;;;;;;4861845;29;20475;-78
2023/08/14 00:23:39;;;;;;;4.32;2.47;;;17.20;99.90;;;;;;4877559;29;20072;-77
2023/08/14 00:26:05;;;;;;;6.05;2.60;;;17.20;99.90;;;;;;4877789;29;20120;-79
2023/08/14 00:28:31;;;;;;;4.65;2.40;;;17.20;99.90;;;;;;4878435;29;20041;-77
2023/08/14 00:30:57;;;;;;;4.32;2.72;;;17.20;99.90;;;;;;4878489;29;20500;-77
2023/08/14 00:33:23;;;;;;;4.57;2.60;;;17.10;99.90;;;;;;4890974;29;20041;-79
2023/08/14 00:35:48;;;;;;;7.50;2.85;;;17.10;99.90;;;;;;4878933;29;20060;-79
2023/08/14 00:38:14;;;;;;;7.55;3.20;;;17.10;99.90;;;;;;4880319;29;20053;-78
2023/08/14 00:40:40;;;;;;;5.57;2.90;;;17.10;99.90;;;;;;4881341;29;20049;-79
2023/08/14 00:43:05;;;;;;;4.60;2.97;;;17.00;99.90;;;;;;4866306;29;20139;-78
2023/08/14 00:45:32;;;;;;;5.97;2.80;;;17.00;99.90;;;;;;4871508;29;20045;-78
2023/08/14 00:47:58;;;;;;;5.00;2.72;;;17.00;99.90;;;;;;4881772;29;20301;-78
2023/08/14 00:50:24;;;;;;;5.57;2.88;;;17.00;99.90;;;;;;4884127;29;20057;-77
2023/08/14 00:52:55;;;;;;;6.32;2.90;;;16.90;99.90;;;;;;4881001;29;20045;-78
2023/08/14 00:55:25;;;;;;;4.85;2.83;;;16.90;99.90;;;;;;4882019;29;20109;-78
2023/08/14 00:57:53;;;;;;;3.90;2.80;;;16.90;99.90;;;;;;4882360;29;20060;-77
2023/08/14 01:00:18;;;;;;;5.47;2.65;;;16.90;99.90;;;;;;4895519;29;20052;-78
2023/08/14 01:02:46;;;;;;;4.63;2.90;;;16.90;99.90;;;;;;4882769;29;20045;-78
2023/08/14 01:05:12;;;;;;;7.70;3.05;;;16.90;99.90;;;;;;4881122;29;20053;-78
2023/08/14 01:07:38;;;;;;;5.28;2.88;;;16.80;99.90;;;;;;4865941;29;20108;-78
2023/08/14 01:10:06;;;;;;;11.27;3.08;;;16.80;99.90;;;;;;4881633;29;20053;-78
2023/08/14 01:12:46;;;;;;;4.65;2.70;;;16.80;99.90;;;;;;4880211;29;20045;-79
2023/08/14 01:15:22;;;;;;;4.72;2.67;;;16.70;99.90;;;;;;4881426;29;20061;-78
2023/08/14 01:18:03;;;;;;;5.60;3.25;;;16.70;99.90;;;;;;4882357;29;20048;-77
2023/08/14 01:20:34;;;;;;;5.38;2.80;;;16.70;99.90;;;;;;4867538;29;20069;-78
2023/08/14 01:23:21;;;;;;;5.05;2.97;;;16.70;99.90;;;;;;4881526;29;20045;-78
2023/08/14 01:25:49;;;;;;;5.43;3.33;;;16.70;99.90;;;;;;4881049;29;20053;-77
2023/08/14 01:28:15;;;;;;;5.22;3.08;;;16.70;99.90;;;;;;4882162;29;20053;-78
2023/08/14 01:30:41;;;;;;;5.25;3.35;;;16.70;99.90;;;;;;4883013;29;20060;-77
2023/08/14 01:33:06;;;;;;;6.85;3.80;;;16.60;99.90;;;;;;4880326;29;20049;-77
2023/08/14 01:35:41;;;;;;;6.35;3.90;;;16.60;99.90;;;;;;4879848;29;20185;-78
2023/08/14 01:38:34;;;;;;;7.93;4.40;;;16.60;99.90;;;;;;4882406;29;20044;-76
2023/08/14 01:41:03;;;;;;;7.70;4.20;;;16.60;99.90;;;;;;4878927;29;20060;-77
2023/08/14 01:43:37;;;;;;;7.53;3.60;;;16.50;99.90;;;;;;4891901;29;20104;-77
2023/08/14 01:46:06;;;;;;;9.07;3.58;;;16.50;99.90;;;;;;4881004;29;20049;-78
2023/08/14 01:48:35;;;;;;;6.68;3.72;;;16.50;99.90;;;;;;4879546;29;20449;-78
2023/08/14 01:51:01;;;;;;;5.60;3.10;;;16.50;99.90;;;;;;4880291;29;20619;-78
2023/08/14 01:53:27;;;;;;;5.38;3.28;;;16.50;99.90;;;;;;4880106;29;20052;-77
2023/08/14 01:55:53;;;;;;;4.78;3.05;;;16.50;99.90;;;;;;4864054;29;20060;-77
2023/08/14 01:58:18;;;;;;;6.43;3.25;;;16.40;99.90;;;;;;4879228;29;20053;-78
2023/08/14 02:00:44;;;;;;;5.95;3.22;;;16.40;99.90;;;;;;4873988;29;20052;-77
2023/08/14 02:03:10;;;;;;;5.18;3.10;;;16.40;99.90;;;;;;4879894;29;20078;-77
2023/08/14 02:05:35;;;;;;;7.95;3.30;;;16.40;99.90;;;;;;4879945;29;20441;-78
2023/08/14 02:08:01;;;;;;;7.60;3.22;;;16.30;99.90;;;;;;4880881;29;20029;-77
2023/08/14 02:10:27;;;;;;;6.00;3.17;;;16.40;99.90;;;;;;4875696;29;20049;-77
2023/08/14 02:12:53;;;;;;;4.57;2.88;;;16.30;99.90;;;;;;4849511;29;20128;-78
2023/08/14 02:15:20;;;;;;;6.50;2.97;;;16.30;99.90;;;;;;4880260;29;20057;-77
2023/08/14 02:17:46;;;;;;;4.70;2.70;;;16.40;99.90;;;;;;4869870;29;20087;-77
2023/08/14 02:20:12;;;;;;;3.13;2.53;;;16.40;99.90;;;;;;4878583;29;20440;-77
2023/08/14 02:22:37;;;;;;;8.20;3.10;;;16.40;99.90;;;;;;4887844;29;20048;-78
2023/08/14 02:25:03;;;;;;;8.45;3.03;;;16.40;99.90;;;;;;4866362;29;20188;-78
2023/08/14 02:27:29;;;;;;;5.47;3.20;;;16.40;99.90;;;;;;4886354;29;20045;-77
2023/08/14 02:29:55;;;;;;;6.85;2.90;;;16.40;99.90;;;;;;4880728;29;20519;-78
2023/08/14 02:32:21;;;;;;;6.85;3.17;;;16.50;99.90;;;;;;4882884;29;20065;-77
2023/08/14 02:34:48;;;;;;;6.22;2.88;;;16.50;99.90;;;;;;4863315;29;20072;-78
2023/08/14 02:37:16;;;;;;;6.43;3.10;;;16.50;99.90;;;;;;4863314;29;20056;-78
2023/08/14 02:39:42;;;;;;;5.90;3.10;;;16.50;99.90;;;;;;4863737;29;20052;-78
2023/08/14 02:42:09;;;;;;;4.10;2.83;;;16.50;99.90;;;;;;4887048;29;20088;-77
2023/08/14 02:44:36;;;;;;;5.65;3.47;;;16.50;99.90;;;;;;4863612;29;20395;-76
2023/08/14 02:47:03;;;;;;;6.60;3.13;;;16.50;99.90;;;;;;4879780;29;20415;-77
2023/08/14 02:49:28;;;;;;;5.75;2.97;;;16.50;99.90;;;;;;4879697;29;20132;-77
2023/08/14 02:51:54;;;;;;;5.57;2.92;;;16.50;99.90;;;;;;4880346;29;20132;-78
2023/08/14 02:54:20;;;;;;;5.10;3.10;;;16.50;99.90;;;;;;4882190;29;20313;-77
2023/08/14 02:56:47;;;;;;;5.47;3.42;;;16.50;99.90;;;;;;4860567;29;20049;-78
2023/08/14 02:59:13;;;;;;;6.95;3.78;;;16.40;99.90;;;;;;4861386;29;20060;-77
2023/08/14 03:01:38;;;;;;;6.15;3.70;;;16.40;99.90;;;;;;4847499;29;20132;-78
2023/08/14 03:04:04;;;;;;;6.80;3.78;;;16.40;99.90;;;;;;4883893;29;20132;-76
2023/08/14 03:06:31;;;;;;;7.55;4.07;;;16.40;99.90;;;;;;4879545;29;20057;-78
2023/08/14 03:09:01;;;;;;;8.48;5.00;;;16.40;99.90;;;;;;4878471;29;20492;-78
2023/08/14 03:11:26;;;;;;;5.50;4.47;;;16.30;99.90;;;;;;4878289;29;20067;-78
2023/08/14 03:13:53;;;;;;;7.47;4.80;;;16.30;99.90;;;;;;4882898;29;20041;-77
2023/08/14 03:16:18;;;;;;;9.48;5.30;;;16.30;99.90;;;;;;4878990;29;20057;-77
2023/08/14 03:18:44;;;;;;;8.70;5.30;;;16.20;99.90;;;;;;4879015;29;20400;-77
2023/08/14 03:21:10;;;;;;;8.93;5.55;;;16.20;99.90;;;;;;4879106;29;20053;-77
2023/08/14 03:23:36;;;;;;;7.22;5.30;;;16.20;99.90;;;;;;4881485;29;20037;-77
2023/08/14 03:26:04;;;;;;;6.55;5.03;;;16.20;99.90;;;;;;4877988;29;20052;-76
2023/08/14 03:28:30;;;;;;;10.05;5.70;;;16.20;99.90;;;;;;4878812;29;20049;-78
2023/08/14 03:30:56;;;;;;;9.43;5.75;;;16.20;99.90;;;;;;4878923;29;20127;-78
2023/08/14 03:33:21;;;;;;;8.07;5.32;;;16.20;99.90;;;;;;4863149;29;20059;-77
2023/08/14 03:35:47;;;;;;;9.30;5.80;;;16.20;99.90;;;;;;4889581;29;20072;-78
2023/08/14 03:38:13;;;;;;;11.75;5.68;;;16.20;99.90;;;;;;4879065;29;20045;-77
2023/08/14 03:40:39;;;;;;;11.38;5.85;;;16.10;99.90;;;;;;4877852;29;20116;-78
2023/08/14 03:43:04;;;;;;;9.27;6.07;;;16.10;99.90;;;;;;4878144;29;20045;-77
2023/08/14 03:45:30;;;;;;;6.55;5.55;;;16.10;99.90;;;;;;4885651;29;20115;-78
2023/08/14 03:47:56;;;;;;;9.48;5.47;;;16.10;99.90;;;;;;4862650;29;20128;-77
2023/08/14 03:50:22;;;;;;;7.88;5.80;;;16.10;99.90;;;;;;4877368;29;20140;-77
2023/08/14 03:52:50;;;;;;;8.82;5.57;;;16.10;99.90;;;;;;4878836;29;20084;-77
2023/08/14 03:55:16;;;;;;;8.43;6.18;;;16.10;99.90;;;;;;4884789;29;20049;-77
2023/08/14 03:57:41;;;;;;;9.82;6.55;;;16.10;99.90;;;;;;4880034;29;20045;-77
2023/08/14 04:00:08;;;;;;;9.85;5.90;;;16.10;99.90;;;;;;4879027;29;20045;-77
2023/08/14 04:02:34;;;;;;;8.02;6.07;;;16.10;99.90;;;;;;4877226;29;20136;-77
2023/08/14 04:04:59;;;;;;;9.80;5.82;;;16.10;99.90;;;;;;4880623;29;20105;-77
2023/08/14 04:07:25;;;;;;;9.32;6.05;;;16.10;99.90;;;;;;4877306;29;20085;-76
2023/08/14 04:09:51;;;;;;;8.55;6.13;;;16.00;99.90;;;;;;4877771;29;20499;-77
2023/08/14 04:12:17;;;;;;;8.88;6.40;;;16.10;99.90;;;;;;4878738;29;20089;-79
2023/08/14 04:14:43;;;;;;;11.15;6.70;;;16.10;99.90;;;;;;4880411;29;20459;-77
2023/08/14 04:17:09;;;;;;;9.65;6.57;;;16.10;99.90;;;;;;4866950;29;20559;-77
2023/08/14 04:19:35;;;;;;;9.25;6.18;;;16.10;99.90;;;;;;4880780;29;20052;-77
2023/08/14 04:22:00;;;;;;;8.60;6.78;;;16.10;99.90;;;;;;4865924;29;20064;-76
2023/08/14 04:24:26;;;;;;;10.55;6.38;;;16.20;99.90;;;;;;4882322;29;20411;-75
2023/08/14 04:26:52;;;;;;;9.93;6.05;;;16.10;99.90;;;;;;4882300;29;20041;-77
2023/08/14 04:29:18;;;;;;;8.55;6.38;;;16.20;99.90;;;;;;4852067;29;20049;-77
2023/08/14 04:31:44;;;;;;;8.82;5.90;;;16.20;99.90;;;;;;4882435;29;20049;-76
2023/08/14 04:34:10;;;;;;;8.43;5.93;;;16.20;99.90;;;;;;4883023;29;20080;-77
2023/08/14 04:36:36;;;;;;;9.25;6.10;;;16.20;99.90;;;;;;4882939;29;20091;-77
2023/08/14 04:39:04;;;;;;;9.23;5.63;;;16.20;99.90;;;;;;4865712;29;20085;-77
2023/08/14 04:41:30;;;;;;;6.82;5.78;;;16.30;99.90;;;;;;4880759;29;20045;-76
2023/08/14 04:43:56;;;;;;;7.50;5.80;;;16.30;99.90;;;;;;4865281;29;20069;-77
2023/08/14 04:46:35;;;;;;;7.75;5.90;;;16.30;99.90;;;;;;4881623;29;20048;-77
2023/08/14 04:49:02;;;;;;;12.98;6.53;;;16.30;99.90;;;;;;4884100;29;20546;-76
2023/08/14 04:51:28;;;;;;;7.65;6.13;;;16.40;99.90;;;;;;4890490;29;20059;-76
2023/08/14 04:53:55;;;;;;;9.15;6.60;;;16.40;99.90;;;;;;4886568;29;20131;-76
2023/08/14 04:56:21;;;;;;;10.35;6.55;;;16.40;99.90;;;;;;4880459;29;20057;-76
2023/08/14 04:58:46;;;;;;;9.95;6.47;;;16.40;99.90;;;;;;4876857;29;20045;-76
2023/08/14 05:01:12;;;;;;;7.85;5.82;;;16.50;99.90;;;;;;4880971;29;20060;-77
2023/08/14 05:03:38;;;;;;;9.07;6.00;;;16.50;99.90;;;;;;4880873;29;20052;-77
2023/08/14 05:06:04;;;;;;;8.70;5.60;;;16.50;99.90;;;;;;4880516;29;20056;-77
2023/08/14 05:08:30;;;;;;;11.73;5.70;;;16.60;99.90;;;;;;4881887;29;20041;-77
2023/08/14 05:10:56;;;;;;;11.57;5.97;;;16.60;99.90;;;;;;4888285;29;20132;-77
2023/08/14 05:13:22;;;;;;;8.32;5.45;;;16.70;99.90;;;;;;4879383;29;20448;-77
2023/08/14 05:15:49;;;;;;;8.55;5.00;;;16.80;99.90;;;;;;4880568;29;20121;-76
2023/08/14 05:18:15;;;;;;;10.88;5.35;;;16.80;99.90;;;;;;4889864;29;20407;-77
2023/08/14 05:20:48;;;;;;;8.45;5.13;;;16.80;99.90;;;;;;4883445;29;20105;-78
2023/08/14 05:23:15;;;;;;;11.25;5.72;;;16.90;99.90;;;;;;4890116;29;20139;-77
2023/08/14 05:25:45;;;;;;;8.68;5.35;;;16.90;99.90;;;;;;4878480;29;20051;-76
2023/08/14 05:28:11;;;;;;;7.05;5.60;;;16.90;99.90;;;;;;4879650;29;20057;-77
2023/08/14 05:30:46;;;;;;;10.60;5.10;;;16.90;99.90;;;;;;4881384;29;20045;-76
2023/08/14 05:33:13;;;;;;;10.05;5.65;;;17.00;99.90;;;;;;4864115;29;20041;-77
2023/08/14 05:35:39;;;;;;;9.90;5.30;;;17.00;99.90;;;;;;4879918;29;20073;-77
2023/08/14 05:38:05;;;;;;;9.20;4.93;;;17.10;99.90;;;;;;4864411;29;20125;-77
2023/08/14 05:40:31;;;;;;;9.68;4.88;;;17.10;99.90;;;;;;4876302;29;20068;-77
2023/08/14 05:43:07;;;;;;;10.75;5.20;;;17.20;99.90;;;;;;4880919;29;20049;-76
2023/08/14 05:45:41;;;;;;;10.70;5.15;;;17.20;99.90;;;;;;4879015;29;20064;-76
2023/08/14 05:48:07;;;;;;;9.45;5.22;;;17.30;99.90;;;;;;4880926;29;20120;-77
2023/08/14 05:50:34;;;;;;;8.10;4.60;;;17.50;99.90;;;;;;4865485;29;20060;-77
2023/08/14 05:53:04;;;;;;;8.57;4.80;;;17.80;99.90;;;;;;4899626;29;20051;-77
2023/08/14 05:55:32;;;;;;;9.43;4.25;;;18.00;99.90;;;;;;4880102;29;20068;-77
2023/08/14 05:57:58;;;;;;;10.52;5.28;;;18.00;99.90;;;;;;4879366;29;20056;-76
2023/08/14 06:00:25;;;;;;;8.90;5.13;;;18.10;99.90;;;;;;4881065;29;20041;-76
2023/08/14 06:02:51;;;;;;;8.30;4.50;;;18.10;99.90;;;;;;4885348;29;20104;-76
2023/08/14 06:05:17;;;;;;;7.82;5.20;;;18.10;99.90;;;;;;4880892;29;20053;-77
2023/08/14 06:07:43;;;;;;;9.02;4.47;;;18.10;99.90;;;;;;4879929;29;20056;-77
2023/08/14 06:10:09;;;;;;;10.95;4.57;;;18.10;99.90;;;;;;4864146;29;20053;-77
2023/08/14 06:12:35;;;;;;;7.97;4.55;;;18.10;99.90;;;;;;4864690;29;20124;-77
2023/08/14 06:15:01;;;;;;;8.15;4.55;;;18.10;99.90;;;;;;4880073;29;20084;-77
2023/08/14 06:17:28;;;;;;;10.02;4.57;;;18.20;99.90;;;;;;4879134;29;20399;-77
2023/08/14 06:19:54;;;;;;;8.80;4.43;;;18.30;99.90;;;;;;4878342;29;20053;-77
2023/08/14 06:22:20;;;;;;;10.25;4.53;;;18.30;99.90;;;;;;4864741;29;20547;-76
2023/08/14 06:24:46;;;;;;;7.30;4.20;;;18.50;99.90;;;;;;4877945;29;20144;-75
2023/08/14 06:27:12;;;;;;;9.00;4.20;;;18.60;99.90;;;;;;4877439;29;20137;-78
2023/08/14 06:29:38;;;;;;;8.93;3.95;;;18.60;99.90;;;;;;4878958;29;20088;-76
2023/08/14 06:32:07;;;;;;;9.93;4.47;;;18.70;99.90;;;;;;4883576;29;20070;-74
2023/08/14 06:34:32;;;;;;;11.10;4.45;;;18.90;99.90;;;;;;4882457;29;20044;-77
2023/08/14 06:36:58;;;;;;;8.35;3.78;;;19.20;99.90;;;;;;4862521;29;20049;-75
2023/08/14 06:39:24;;;;;;;7.25;3.88;;;19.40;99.90;;;;;;4880055;29;20073;-76
2023/08/14 06:41:50;;;;;;;8.18;4.25;;;19.50;99.90;;;;;;4878246;29;20048;-75
2023/08/14 06:44:15;;;;;;;8.40;4.60;;;19.50;99.90;;;;;;4878313;29;20053;-76
2023/08/14 06:46:41;;;;;;;8.05;4.35;;;19.50;99.90;;;;;;4879407;29;20051;-77
2023/08/14 06:49:09;;;;;;;8.40;4.68;;;19.40;99.90;;;;;;4878812;29;20041;-74
2023/08/14 06:51:35;;;;;;;8.80;4.32;;;19.30;99.90;;;;;;4878635;29;20080;-78
2023/08/14 06:54:01;;;;;;;9.70;4.43;;;19.30;99.90;;;;;;4877955;29;20095;-75
2023/08/14 06:56:27;;;;;;;9.85;4.65;;;19.30;99.90;;;;;;4877816;29;20507;-75
2023/08/14 06:58:52;;;;;;;9.40;4.43;;;19.30;99.90;;;;;;4878609;29;20081;-74
2023/08/14 07:01:19;;;;;;;9.20;3.90;;;19.30;99.90;;;;;;4861324;29;20108;-73
2023/08/14 07:03:45;;;;;;;9.30;4.55;;;19.40;99.90;;;;;;4878263;29;20040;-75
2023/08/14 07:06:11;;;;;;;10.93;4.07;;;19.40;99.90;;;;;;4881933;29;20140;-74
2023/08/14 07:08:37;;;;;;;9.23;4.20;;;19.50;99.90;;;;;;4877701;29;20124;-77
2023/08/14 07:11:03;;;;;;;10.15;4.30;;;19.60;99.90;;;;;;4881182;29;20112;-74
2023/08/14 07:13:29;;;;;;;8.82;4.57;;;19.70;99.90;;;;;;4877066;29;20049;-74
2023/08/14 07:15:54;;;;;;;7.13;4.32;;;19.80;99.90;;;;;;4861472;29;20053;-75
2023/08/14 07:18:20;;;;;;;11.10;4.63;;;20.20;99.90;;;;;;4877769;29;20049;-72
2023/08/14 07:20:46;;;;;;;8.85;4.18;;;20.80;99.90;;;;;;4877861;29;20052;-77
2023/08/14 07:23:20;;;;;;;9.68;3.72;;;21.30;99.90;;;;;;4878483;29;20064;-76
2023/08/14 07:25:47;;;;;;;5.95;3.47;;;21.80;99.90;;;;;;4868302;29;20496;-75
2023/08/14 07:28:13;;;;;;;8.30;3.78;;;22.20;99.90;;;;;;4863763;29;20136;-76
2023/08/14 07:30:39;;;;;;;8.38;3.70;;;22.70;99.90;;;;;;4877737;29;20053;-74
2023/08/14 07:33:07;;;;;;;7.68;3.33;;;23.10;99.90;;;;;;4878025;29;20128;-76
2023/08/14 07:35:33;;;;;;;8.02;3.40;;;23.50;99.90;;;;;;4875900;29;20052;-75
2023/08/14 07:37:59;;;;;;;6.60;3.17;;;23.90;99.90;;;;;;4861445;29;20061;-74
2023/08/14 07:40:25;;;;;;;7.60;3.55;;;24.30;99.90;;;;;;4861222;29;20132;-74
2023/08/14 07:42:51;;;;;;;7.63;3.20;;;24.50;99.90;;;;;;4876894;29;20077;-75
2023/08/14 07:45:17;;;;;;;6.75;2.88;;;24.40;99.90;;;;;;4878114;29;20148;-76
2023/08/14 07:47:43;;;;;;;9.80;3.25;;;24.30;99.90;;;;;;4875504;29;20052;-80
2023/08/14 07:50:09;;;;;;;6.40;3.20;;;24.50;99.90;;;;;;4865249;29;20361;-74
2023/08/14 07:52:35;;;;;;;7.00;2.85;;;24.70;99.90;;;;;;4880988;29;20052;-76
2023/08/14 07:55:02;;;;;;;5.45;2.75;;;24.80;99.90;;;;;;4877539;29;20049;-77
2023/08/14 07:57:28;;;;;;;8.32;3.25;;;24.80;99.90;;;;;;4877250;29;20101;-77
2023/08/14 07:59:54;;;;;;;7.57;3.00;;;24.50;99.90;;;;;;4877985;29;20057;-77
2023/08/14 08:02:20;;;;;;;9.60;3.35;;;24.20;99.90;;;;;;4877027;29;20057;-78
2023/08/14 08:04:47;;;;;;;9.52;2.95;;;23.90;99.90;;;;;;4876862;29;20041;-77
2023/08/14 08:07:13;;;;;;;6.32;3.00;;;23.80;99.90;;;;;;4869548;29;20088;-76
2023/08/14 08:09:39;;;;;;;7.55;3.40;;;23.60;99.90;;;;;;4873072;29;20384;-76
2023/08/14 08:12:05;;;;;;;9.20;3.10;;;23.40;99.90;;;;;;4878477;29;20057;-75
2023/08/14 08:14:32;;;;;;;8.50;3.47;;;23.30;99.90;;;;;;4846683;29;20443;-75
2023/08/14 08:16:58;;;;;;;7.88;3.55;;;23.20;99.90;;;;;;4876714;29;20045;-75
2023/08/14 08:19:24;;;;;;;8.23;3.20;;;23.10;99.90;;;;;;4857208;29;20065;-76
2023/08/14 08:21:50;;;;;;;8.00;3.60;;;23.00;99.90;;;;;;4875683;29;20045;-77
2023/08/14 08:24:15;;;;;;;9.35;3.60;;;22.90;99.90;;;;;;4876536;29;20060;-76
2023/08/14 08:26:41;;;;;;;5.90;2.95;;;22.90;99.90;;;;;;4860985;29;20088;-75
2023/08/14 08:29:07;;;;;;;8.63;3.67;;;22.80;99.90;;;;;;4876399;29;20085;-76
2023/08/14 08:31:33;;;;;;;7.18;3.45;;;23.00;99.90;;;;;;4877152;29;20492;-74
2023/08/14 08:33:58;;;;;;;11.30;3.90;;;23.30;99.90;;;;;;4869723;29;20128;-75
2023/08/14 08:36:24;;;;;;;6.50;3.38;;;23.60;99.90;;;;;;4874914;29;20054;-76
2023/08/14 08:38:50;;;;;;;9.13;3.10;;;24.10;99.90;;;;;;4866523;29;20563;-78
2023/08/14 08:41:40;;;;;;;7.53;3.40;;;24.50;99.90;;;;;;4874820;29;20064;-75
2023/08/14 08:44:09;;;;;;;10.68;3.55;;;24.90;99.90;;;;;;4881682;29;20052;-75
2023/08/14 08:46:37;;;;;;;6.32;2.80;;;25.40;99.90;;;;;;4876604;29;20057;-74
2023/08/14 08:49:04;;;;;;;7.28;3.08;;;25.60;99.90;;;;;;4859814;29;20515;-75
2023/08/14 08:51:34;;;;;;;6.53;2.88;;;25.70;99.90;;;;;;4877117;29;20400;-75
2023/08/14 08:54:01;;;;;;;5.68;2.70;;;25.70;99.90;;;;;;4876825;29;20071;-74
2023/08/14 08:56:27;;;;;;;9.18;2.90;;;25.70;99.90;;;;;;4863458;29;20058;-75
2023/08/14 08:58:53;;;;;;;8.50;3.15;;;25.70;99.90;;;;;;4870742;29;20136;-76
2023/08/14 09:01:20;;;;;;;9.10;3.20;;;25.70;99.90;;;;;;4869925;29;20056;-75
2023/08/14 09:03:47;;;;;;;8.43;2.58;;;25.50;99.90;;;;;;4880693;29;20113;-75
2023/08/14 09:06:13;;;;;;;6.10;2.50;;;25.50;99.90;;;;;;4891442;29;20064;-75
2023/08/14 09:08:39;;;;;;;5.70;2.42;;;25.60;99.90;;;;;;4878861;29;20044;-75
2023/08/14 09:11:04;;;;;;;7.00;2.50;;;25.80;99.90;;;;;;4887829;29;20052;-79
2023/08/14 09:13:30;;;;;;;4.80;2.30;;;26.10;99.90;;;;;;4881164;29;20502;-77
2023/08/14 09:15:56;;;;;;;7.45;2.45;;;26.20;99.90;;;;;;4886538;29;20066;-78
2023/08/14 09:18:22;;;;;;;8.18;2.67;;;26.40;99.90;;;;;;4888263;29;20523;-78
2023/08/14 09:20:48;;;;;;;5.00;2.08;;;26.40;99.90;;;;;;4862118;29;20056;-77
2023/08/14 09:23:13;;;;;;;4.53;1.75;;;26.20;99.90;;;;;;4863746;29;20056;-77
2023/08/14 09:25:45;;;;;;;6.10;2.15;;;26.00;99.90;;;;;;4880050;29;20128;-76
2023/08/14 09:28:11;;;;;;;5.72;1.98;;;25.70;99.90;;;;;;4889781;29;20463;-77
2023/08/14 09:30:38;;;;;;;5.20;1.80;;;25.60;99.90;;;;;;4881419;29;20045;-78
2023/08/14 09:33:12;;;;;;;5.35;1.80;;;26.00;99.90;;;;;;4880985;29;20467;-78
2023/08/14 09:35:39;;;;;;;3.33;1.67;;;26.70;99.90;;;;;;4884129;29;20081;-79
2023/08/14 09:38:05;;;;;;;5.45;2.05;;;27.50;99.90;;;;;;4885567;29;20114;-79
2023/08/14 09:40:32;;;;;;;7.78;2.35;;;28.10;99.90;;;;;;4888952;29;20200;-80
2023/08/14 09:42:58;;;;;;;6.25;2.30;;;28.50;99.90;;;;;;4865035;29;20496;-80
2023/08/14 09:45:27;;;;;;;6.13;2.00;;;28.80;99.90;;;;;;4884390;29;20044;-81
2023/08/14 09:47:59;;;;;;;5.32;2.20;;;28.60;99.20;;;;;;4884968;29;20057;-83
2023/08/14 09:50:28;;;;;;;6.35;1.70;;;28.30;98.90;;;;;;4883920;29;20546;-81
2023/08/14 09:53:00;;;;;;;5.25;1.90;;;28.10;99.60;;;;;;4882395;29;20049;-83
2023/08/14 09:55:29;;;;;;;5.50;1.83;;;27.90;99.90;;;;;;4888538;29;20084;-81
2023/08/14 09:57:58;;;;;;;6.07;1.83;;;27.80;99.40;;;;;;4869448;29;20536;-80
2023/08/14 10:00:31;;;;;;;8.15;2.03;;;27.70;98.90;;;;;;4884557;29;20045;-82
2023/08/14 10:02:59;;;;;;;4.53;1.73;;;27.60;99.40;;;;;;4886248;29;20056;-84
2023/08/14 10:05:26;;;;;;;6.47;1.75;;;27.40;99.50;;;;;;4865187;29;20049;-84
2023/08/14 10:07:54;;;;;;;5.55;1.92;;;27.40;99.60;;;;;;4889169;29;20239;-85
2023/08/14 10:10:22;;;;;;;5.78;1.60;;;27.30;99.70;;;;;;4885235;29;20044;-87
2023/08/14 10:12:57;;;;;;;4.50;1.65;;;27.20;99.70;;;;;;4882516;29;20056;-86
2023/08/14 10:15:27;;;;;;;5.82;1.50;;;27.10;98.70;;;;;;4882356;29;20293;-88
2023/08/14 10:17:59;;;;;;;5.47;1.80;;;27.10;98.90;;;;;;4881799;29;20396;-84
2023/08/14 10:20:27;;;;;;;3.42;1.30;;;27.20;99.00;;;;;;4885077;29;20075;-86
2023/08/14 10:22:54;;;;;;;6.10;1.65;;;27.30;98.40;;;;;;4882440;29;20063;-86
2023/08/14 10:25:22;;;;;;;7.88;1.73;;;27.30;97.90;;;;;;4880857;29;20076;-83
2023/08/14 10:27:50;;;;;;;5.10;1.63;;;27.30;97.90;;;;;;4866272;29;20155;-83
2023/08/14 10:30:19;;;;;;;4.45;1.67;;;27.20;98.20;;;;;;4865317;29;20052;-83
2023/08/14 10:32:47;;;;;;;5.72;1.40;;;27.20;98.20;;;;;;4880908;29;20061;-85
2023/08/14 10:35:12;;;;;;;4.03;1.42;;;27.00;98.10;;;;;;4864950;29;20380;-76
2023/08/14 10:37:47;;;;;;;4.82;1.80;;;27.00;98.30;;;;;;4864661;29;20048;-79
2023/08/14 10:40:21;;;;;;;4.20;1.60;;;27.10;98.70;;;;;;4875981;29;20064;-78
2023/08/14 10:42:55;;;;;;;;;;;27.10;98.10;;;;;;4881180;29;20077;-82
2023/08/14 10:45:25;;;;;;;4.97;1.38;;;27.10;97.90;;;;;;4879381;29;19976;-81
2023/08/14 10:47:52;;;;;;;3.67;1.67;;;27.20;97.70;;;;;;4880968;29;20113;-81
2023/08/14 10:50:20;;;;;;;4.53;1.42;;;27.20;97.90;;;;;;4888926;29;20057;-80
2023/08/14 10:52:51;;;;;;;3.53;1.20;;;27.10;97.70;;;;;;4864800;29;20340;-80
2023/08/14 10:55:22;;;;;;;3.35;1.75;;;27.10;98.20;;;;;;4882298;29;20049;-78
2023/08/14 10:57:48;;;;;;;4.28;1.30;;;27.00;97.50;;;;;;4879442;29;20084;-81
2023/08/14 11:00:25;;;;;;;3.60;1.38;;;27.10;98.00;;;;;;4882075;29;20144;-79
2023/08/14 11:03:11;;;;;;;5.28;1.75;;;27.10;97.60;;;;;;4881378;29;20041;-79
2023/08/14 11:05:40;;;;;;;3.03;1.30;;;27.20;98.20;;;;;;4882601;29;20097;-81
2023/08/14 11:08:08;;;;;;;5.25;1.73;;;27.00;97.50;;;;;;4885036;29;20500;-82
2023/08/14 11:10:34;;;;;;;3.60;1.52;;;27.00;97.80;;;;;;4873091;29;20396;-83
2023/08/14 11:13:01;;;;;;;4.65;1.33;;;27.00;97.70;;;;;;4855653;29;20530;-84
2023/08/14 11:15:30;;;;;;;3.65;1.50;;;27.10;97.70;;;;;;4878925;29;20044;-83
2023/08/14 11:17:57;;;;;;;4.72;1.70;;;26.90;97.70;;;;;;4879657;29;20067;-83
2023/08/14 11:20:27;;;;;;;5.40;1.65;;;26.70;98.00;;;;;;4890406;29;20093;-83
2023/08/14 11:22:53;;;;;;;6.05;1.80;;;26.70;98.20;;;;;;4889263;29;20054;-83
2023/08/14 11:25:20;;;;;;;5.05;1.60;;;26.60;98.30;;;;;;4884672;29;20623;-82
2023/08/14 11:27:52;;;;;;;4.13;1.80;;;26.50;98.60;;;;;;4862305;29;20476;-79
2023/08/14 11:30:22;;;;;;;3.70;1.53;;;26.40;98.70;;;;;;4881219;29;20048;-80
2023/08/14 11:32:49;;;;;;;5.47;1.63;;;26.50;99.00;;;;;;4880758;29;20296;-78
2023/08/14 11:35:16;;;;;;;4.03;1.70;;;26.50;98.90;;;;;;4860869;29;20052;-76
2023/08/14 11:37:42;;;;;;;3.50;1.77;;;26.40;98.90;;;;;;4862954;29;20568;-77
2023/08/14 11:40:10;;;;;;;4.40;1.77;;;26.40;99.20;;;;;;4877245;29;20404;-79
2023/08/14 11:42:38;;;;;;;3.55;1.60;;;26.40;99.20;;;;;;4878778;29;20041;-80
2023/08/14 11:45:05;;;;;;;5.60;1.58;;;26.30;99.10;;;;;;4885116;29;20049;-80
2023/08/14 11:47:49;;;;;;;5.35;1.80;;;26.30;99.00;;;;;;4862327;29;20045;-79
2023/08/14 11:50:17;;;;;;;3.35;1.40;;;26.20;98.40;;;;;;4840570;29;20049;-75
2023/08/14 11:52:44;;;;;;;5.70;1.67;;;26.20;98.70;;;;;;4868503;29;20363;-78
2023/08/14 11:55:10;;;;;;;5.60;1.73;;;26.10;98.30;;;;;;4849984;29;20049;-78
2023/08/14 11:57:37;;;;;;;4.53;1.60;;;26.00;98.40;;;;;;4877602;29;20045;-78
2023/08/14 12:00:10;;;;;;;7.32;1.40;;;26.10;98.70;;;;;;4877534;29;20452;-79
2023/08/14 12:02:37;;;;;;;6.47;1.63;;;26.10;98.90;;;;;;4878344;29;20064;-79
2023/08/14 12:05:03;;;;;;;3.53;1.70;;;26.20;98.50;;;;;;4877521;29;20053;-75
2023/08/14 12:07:29;;;;;;;3.97;1.70;;;26.30;98.50;;;;;;4877858;29;20112;-75
2023/08/14 12:09:56;;;;;;;12.45;2.53;;;26.40;98.10;;;;;;4877415;29;20472;-73
2023/08/14 12:12:24;;;;;;;7.05;1.83;;;26.40;98.30;;;;;;4873158;29;20049;-72
2023/08/14 12:14:51;;;;;;;8.30;2.10;;;26.40;98.30;;;;;;4869916;29;20504;-74
2023/08/14 12:17:18;;;;;;;4.80;1.80;;;26.40;98.50;;;;;;4878852;29;20052;-73
2023/08/14 12:19:54;;;;;;;5.63;1.90;;;26.50;98.30;;;;;;4876146;29;20064;-74
2023/08/14 12:22:25;;;;;;;5.03;1.83;;;26.70;98.40;;;;;;4873260;29;20060;-71
2023/08/14 12:24:51;;;;;;;5.97;1.92;;;26.80;98.40;;;;;;4879000;29;20060;-78
2023/08/14 12:27:22;;;;;;;4.00;1.63;;;27.00;98.10;;;;;;4878331;29;20053;-79
2023/08/14 12:29:49;;;;;;;3.28;1.85;;;27.00;97.90;;;;;;4862449;29;20049;-76
2023/08/14 12:32:15;;;;;;;6.10;1.90;;;26.90;98.10;;;;;;4875314;29;20408;-80
2023/08/14 12:34:41;;;;;;;3.78;1.40;;;27.00;98.30;;;;;;4845407;29;20041;-77
2023/08/14 12:37:10;;;;;;;4.25;1.80;;;27.00;98.10;;;;;;4878091;29;20376;-79
2023/08/14 12:39:36;;;;;;;5.68;1.88;;;27.00;98.20;;;;;;4882814;29;20507;-77
2023/08/14 12:42:02;;;;;;;3.42;1.80;;;27.00;98.40;;;;;;4864545;29;20120;-76
2023/08/14 12:44:29;;;;;;;5.40;1.80;;;27.00;98.20;;;;;;4865420;29;20041;-76
2023/08/14 12:46:55;;;;;;;5.65;1.77;;;27.00;98.50;;;;;;4867923;29;20053;-76